Time;durP1;ratioP1;P1;durP2;ratioP2;P2;SDS_P1;SDS_P2;PMS_P1;PMS_P2;Temp;Humidity;BMP_temperature;BMP_pressure;BME280_temperature;BME280_humidity;BME280_pressure;Samples;Min_cycle;Max_cycle;Signal;HPM_P1;HPM_P2
2021/09/07 00:02:28;;;;;;;20.43;15.20;;;17.20;1.00;18.20;101276.00;;;;4908352;29;20478;-81
2021/09/07 00:04:56;;;;;;;16.63;14.53;;;17.20;1.00;18.10;101275.00;;;;4924928;29;20474;-81
2021/09/07 00:07:24;;;;;;;20.00;15.47;;;17.10;1.00;18.10;101268.00;;;;4922480;29;21139;-82
2021/09/07 00:09:54;;;;;;;17.50;15.13;;;17.20;1.00;18.00;101266.00;;;;4911159;29;20467;-79
2021/09/07 00:12:23;;;;;;;17.47;15.77;;;17.00;1.00;17.70;101277.00;;;;4907252;29;20577;-82
2021/09/07 00:14:51;;;;;;;17.50;15.50;;;16.90;1.00;17.90;101254.00;;;;4900592;29;21166;-81
2021/09/07 00:17:20;;;;;;;16.00;14.40;;;16.90;1.00;17.90;101256.00;;;;4916341;29;20454;-82
2021/09/07 00:19:49;;;;;;;17.20;15.50;;;16.90;1.00;17.80;101262.00;;;;4923384;29;20446;-82
2021/09/07 00:22:18;;;;;;;17.70;15.47;;;16.80;1.00;17.80;101271.00;;;;4929961;29;20474;-81
2021/09/07 00:24:46;;;;;;;21.90;16.57;;;16.70;1.00;17.70;101274.00;;;;4933092;29;20451;-81
2021/09/07 00:27:16;;;;;;;21.27;17.40;;;16.70;1.00;17.70;101241.00;;;;4928442;29;20494;-81
2021/09/07 00:29:45;;;;;;;20.47;17.17;;;16.60;1.00;17.70;101232.00;;;;4909026;29;20505;-82
2021/09/07 00:32:14;;;;;;;19.30;16.80;;;16.60;1.00;17.70;101246.00;;;;4923719;29;20497;-81
2021/09/07 00:34:42;;;;;;;16.93;15.30;;;16.70;1.00;17.70;101256.00;;;;4925594;29;20441;-81
2021/09/07 00:37:10;;;;;;;18.20;16.10;;;16.70;1.00;17.70;101263.00;;;;4925610;29;20456;-81
2021/09/07 00:39:39;;;;;;;17.07;15.40;;;16.60;1.00;17.60;101269.00;;;;4939519;29;20446;-81
2021/09/07 00:42:07;;;;;;;18.20;16.30;;;16.60;1.00;17.60;101242.00;;;;4906756;29;20525;-82
2021/09/07 00:44:37;;;;;;;18.23;15.60;;;16.60;1.00;17.70;101244.00;;;;4924763;29;20449;-81
2021/09/07 00:47:06;;;;;;;19.90;16.73;;;16.60;1.00;17.60;101263.00;;;;4919714;29;20465;-81
2021/09/07 00:49:36;;;;;;;17.73;15.63;;;16.60;1.00;17.60;101258.00;;;;4912304;29;20494;-81
2021/09/07 00:52:06;;;;;;;20.50;16.50;;;16.60;1.00;17.60;101266.00;;;;4916416;29;20473;-81
2021/09/07 00:54:38;;;;;;;17.60;15.70;;;16.60;1.00;17.60;101256.00;;;;4940238;29;20562;-81
2021/09/07 00:57:09;;;;;;;19.27;17.17;;;16.60;1.00;17.50;101258.00;;;;4914439;29;20541;-81
2021/09/07 00:59:39;;;;;;;19.87;15.73;;;16.60;1.00;17.50;101254.00;;;;4907344;29;20446;-81
2021/09/07 01:02:10;;;;;;;18.47;14.60;;;16.50;1.00;17.50;101216.00;;;;4918145;29;20992;-81
2021/09/07 01:04:40;;;;;;;18.40;15.93;;;16.50;1.00;17.50;101249.00;;;;4921395;29;20497;-81
2021/09/07 01:07:09;;;;;;;18.97;16.53;;;16.50;1.00;17.40;101254.00;;;;4918651;29;20980;-81
2021/09/07 01:09:40;;;;;;;19.60;16.23;;;16.40;1.00;17.40;101236.00;;;;4908893;29;20896;-81
2021/09/07 01:12:10;;;;;;;19.50;16.00;;;16.50;1.00;17.40;101233.00;;;;4925579;29;20551;-81
2021/09/07 01:14:41;;;;;;;16.60;14.80;;;16.40;1.00;17.30;101239.00;;;;4938249;29;20435;-81
2021/09/07 01:17:13;;;;;;;18.07;16.20;;;16.50;1.00;17.40;101236.00;;;;4926468;29;20507;-81
2021/09/07 01:19:45;;;;;;;20.10;14.93;;;16.50;1.00;17.20;101254.00;;;;4924915;29;20453;-82
2021/09/07 01:22:15;;;;;;;20.33;16.00;;;16.40;1.00;17.20;101219.00;;;;4928295;29;20489;-83
2021/09/07 01:24:45;;;;;;;18.13;16.03;;;16.40;1.00;17.30;101251.00;;;;4938415;29;20536;-81
2021/09/07 01:27:13;;;;;;;18.50;15.70;;;16.40;1.00;17.30;101252.00;;;;4927769;29;20459;-81
2021/09/07 01:29:46;;;;;;;19.63;15.00;;;16.40;1.00;17.30;101259.00;;;;4909030;29;20482;-83
2021/09/07 01:32:15;;;;;;;18.50;15.20;;;16.40;1.00;17.30;101212.00;;;;4920204;29;20482;-81
2021/09/07 01:34:43;;;;;;;17.20;15.43;;;16.60;1.00;17.30;101263.00;;;;4917608;29;20457;-83
2021/09/07 01:37:12;;;;;;;18.63;16.23;;;16.50;1.00;17.30;101238.00;;;;4903769;29;20477;-81
2021/09/07 01:39:41;;;;;;;17.40;15.60;;;16.50;1.00;17.30;101256.00;;;;4928940;29;20478;-82
2021/09/07 01:42:11;;;;;;;19.10;15.20;;;16.50;1.00;17.30;101263.00;;;;4924643;29;20514;-82
2021/09/07 01:44:43;;;;;;;16.40;14.57;;;16.40;1.00;17.30;101254.00;;;;4926469;29;20466;-81
2021/09/07 01:47:12;;;;;;;17.57;14.40;;;16.40;1.00;17.30;101259.00;;;;4922653;29;20566;-82
2021/09/07 01:49:41;;;;;;;17.57;15.17;;;16.40;1.00;17.30;101256.00;;;;4897990;29;20464;-81
2021/09/07 01:52:11;;;;;;;16.90;15.23;;;16.40;1.00;17.30;101268.00;;;;4911021;29;20489;-81
2021/09/07 01:54:45;;;;;;;17.23;15.43;;;16.50;1.00;17.20;101234.00;;;;4919581;29;20501;-81
2021/09/07 01:57:17;;;;;;;17.60;15.83;;;16.50;1.00;17.30;101260.00;;;;4905526;29;20478;-81
2021/09/07 01:59:46;;;;;;;18.50;15.77;;;16.40;1.00;17.30;101257.00;;;;4907775;29;20461;-82
2021/09/07 02:02:14;;;;;;;18.07;16.17;;;16.40;1.00;17.10;101254.00;;;;4921075;29;20494;-83
2021/09/07 02:04:45;;;;;;;17.13;15.20;;;16.40;1.00;17.20;101250.00;;;;4929498;29;20466;-82
2021/09/07 02:07:14;;;;;;;17.60;15.70;;;16.40;1.00;17.20;101245.00;;;;4940326;29;20423;-82
2021/09/07 02:09:44;;;;;;;15.40;13.80;;;16.40;1.00;17.20;101215.00;;;;4921812;29;20482;-80
2021/09/07 02:12:13;;;;;;;17.07;15.27;;;16.30;1.00;17.20;101249.00;;;;4892603;29;20506;-83
2021/09/07 02:14:43;;;;;;;18.57;15.20;;;16.30;1.00;17.20;101248.00;;;;4906847;29;20455;-81
2021/09/07 02:17:12;;;;;;;17.60;15.20;;;16.30;1.00;17.20;101239.00;;;;4902186;29;21022;-82
2021/09/07 02:19:42;;;;;;;17.07;15.27;;;16.30;1.00;17.20;101247.00;;;;4920221;29;20470;-83
2021/09/07 02:22:10;;;;;;;17.87;15.97;;;16.30;1.00;17.20;101241.00;;;;4918249;29;20474;-82
2021/09/07 02:24:40;;;;;;;16.17;14.47;;;16.30;1.00;17.20;101243.00;;;;4906596;29;20481;-82
2021/09/07 02:27:09;;;;;;;17.30;15.50;;;16.30;1.00;17.20;101244.00;;;;4919313;29;20466;-86
2021/09/07 02:29:38;;;;;;;15.80;14.13;;;16.20;1.00;17.10;101239.00;;;;4919372;29;20518;-83
2021/09/07 02:32:09;;;;;;;18.27;16.33;;;16.30;1.00;17.10;101237.00;;;;4915727;29;20459;-86
2021/09/07 02:34:39;;;;;;;17.20;15.33;;;16.10;1.00;17.00;101233.00;;;;4921181;29;20510;-82
2021/09/07 02:37:10;;;;;;;17.20;15.20;;;16.10;1.00;17.00;101221.00;;;;4899630;29;20853;-83
2021/09/07 02:39:39;;;;;;;17.43;15.20;;;16.00;1.00;17.00;101227.00;;;;4902233;29;20527;-82
2021/09/07 02:42:09;;;;;;;16.43;14.13;;;16.10;1.00;17.00;101224.00;;;;4933336;29;20497;-84
2021/09/07 02:44:37;;;;;;;20.17;14.83;;;16.00;1.00;16.90;101208.00;;;;4936827;29;20460;-83
2021/09/07 02:47:08;;;;;;;17.63;15.07;;;15.90;1.00;16.90;101232.00;;;;4941788;29;20454;-85
2021/09/07 02:49:37;;;;;;;18.33;15.97;;;15.90;1.00;16.90;101224.00;;;;4925904;29;20805;-81
2021/09/07 02:52:06;;;;;;;19.03;16.00;;;15.90;1.00;16.80;101217.00;;;;4937471;29;20476;-83
2021/09/07 02:54:34;;;;;;;20.30;16.20;;;15.80;1.00;16.80;101190.00;;;;4938249;29;20560;-82
2021/09/07 02:57:03;;;;;;;18.27;16.37;;;15.80;1.00;16.80;101223.00;;;;4925327;29;20487;-82
2021/09/07 02:59:31;;;;;;;18.27;16.27;;;15.80;1.00;16.80;101222.00;;;;4922613;29;20838;-81
2021/09/07 03:02:00;;;;;;;18.03;16.13;;;15.80;1.00;16.80;101216.00;;;;4900258;29;20482;-82
2021/09/07 03:04:31;;;;;;;21.60;15.30;;;15.80;1.00;16.70;101202.00;;;;4911271;29;21248;-81
2021/09/07 03:06:59;;;;;;;18.87;16.07;;;15.90;1.00;16.80;101215.00;;;;4921664;29;20831;-82
2021/09/07 03:09:28;;;;;;;18.50;15.67;;;15.90;1.00;16.80;101226.00;;;;4926801;29;20465;-82
2021/09/07 03:11:56;;;;;;;18.87;16.87;;;15.90;1.00;16.80;101223.00;;;;4921867;29;20482;-82
2021/09/07 03:14:26;;;;;;;17.97;15.17;;;15.90;1.00;16.80;101170.00;;;;4918586;29;20462;-81
2021/09/07 03:16:55;;;;;;;20.00;15.70;;;15.90;1.00;16.80;101220.00;;;;4920565;29;20506;-81
2021/09/07 03:19:24;;;;;;;18.40;15.03;;;15.90;1.00;16.90;101179.00;;;;4910622;29;20527;-84
2021/09/07 03:21:53;;;;;;;17.93;16.10;;;15.90;1.00;16.80;101216.00;;;;4908488;29;20470;-81
2021/09/07 03:24:24;;;;;;;21.23;15.90;;;15.90;1.00;16.90;101208.00;;;;4925126;29;20453;-82
2021/09/07 03:26:52;;;;;;;18.13;15.87;;;15.90;1.00;16.80;101206.00;;;;4923827;29;21164;-81
2021/09/07 03:29:22;;;;;;;24.27;16.00;;;15.90;1.00;16.90;101207.00;;;;4932018;29;20841;-80
2021/09/07 03:31:52;;;;;;;17.03;15.20;;;15.90;1.00;16.80;101208.00;;;;4902242;29;20530;-84
2021/09/07 03:34:22;;;;;;;19.20;16.27;;;15.90;1.00;16.80;101221.00;;;;4938619;29;20446;-81
2021/09/07 03:36:53;;;;;;;20.33;17.37;;;15.80;1.00;16.80;101200.00;;;;4928784;29;20470;-84
2021/09/07 03:39:22;;;;;;;18.97;17.00;;;15.80;1.00;16.80;101197.00;;;;4907147;29;20451;-82
2021/09/07 03:41:51;;;;;;;20.40;17.10;;;15.90;1.00;16.80;101199.00;;;;4910960;29;20481;-82
2021/09/07 03:44:20;;;;;;;18.70;16.70;;;15.90;1.00;16.80;101208.00;;;;4927787;29;20454;-81
2021/09/07 03:46:50;;;;;;;21.00;17.40;;;15.90;1.00;16.80;101215.00;;;;4917566;29;20972;-81
2021/09/07 03:49:18;;;;;;;18.27;16.37;;;15.90;1.00;16.70;101214.00;;;;4886379;29;20554;-81
2021/09/07 03:51:47;;;;;;;22.33;16.70;;;15.80;1.00;16.70;101216.00;;;;4920718;29;20492;-81
2021/09/07 03:54:17;;;;;;;18.47;16.63;;;15.80;1.00;16.70;101214.00;;;;4933165;29;20488;-83
2021/09/07 03:56:45;;;;;;;18.10;16.03;;;15.70;1.00;16.60;101214.00;;;;4918808;29;20505;-81
2021/09/07 03:59:15;;;;;;;19.30;16.00;;;15.80;1.00;16.60;101190.00;;;;4897979;29;20534;-81
2021/09/07 04:01:44;;;;;;;18.70;16.70;;;15.80;1.00;16.60;101229.00;;;;4909273;29;20489;-80
2021/09/07 04:04:13;;;;;;;20.33;17.13;;;15.70;1.00;16.60;101225.00;;;;4916132;29;20477;-80
2021/09/07 04:06:42;;;;;;;22.93;17.97;;;15.70;1.00;16.60;101231.00;;;;4906046;29;20459;-82
2021/09/07 04:09:10;;;;;;;19.33;17.33;;;15.70;1.00;16.60;101206.00;;;;4917366;29;20458;-81
2021/09/07 04:11:41;;;;;;;20.53;18.17;;;15.80;1.00;16.60;101193.00;;;;4929621;29;20478;-81
2021/09/07 04:14:10;;;;;;;20.13;16.80;;;15.70;1.00;16.60;101224.00;;;;4920014;29;20466;-81
2021/09/07 04:16:38;;;;;;;23.83;17.83;;;15.70;1.00;16.70;101224.00;;;;4917200;29;20473;-81
2021/09/07 04:19:07;;;;;;;18.13;16.27;;;15.80;1.00;16.70;101226.00;;;;4923841;29;20480;-81
2021/09/07 04:21:37;;;;;;;19.00;16.67;;;15.80;1.00;16.80;101217.00;;;;4905497;29;20481;-81
2021/09/07 04:24:09;;;;;;;18.57;15.37;;;15.90;1.00;16.90;101214.00;;;;4924398;29;20462;-80
2021/09/07 04:26:37;;;;;;;18.17;15.10;;;15.90;1.00;16.90;101225.00;;;;4920949;29;20466;-81
2021/09/07 04:29:07;;;;;;;18.23;16.33;;;16.00;1.00;17.00;101212.00;;;;4900932;29;20901;-82
2021/09/07 04:31:35;;;;;;;20.77;16.10;;;16.00;1.00;17.00;101216.00;;;;4913523;29;20554;-81
2021/09/07 04:34:05;;;;;;;20.90;16.90;;;16.00;1.00;17.00;101216.00;;;;4936473;29;20443;-84
2021/09/07 04:36:33;;;;;;;20.90;16.00;;;16.00;1.00;17.00;101218.00;;;;4943495;29;20469;-82
2021/09/07 04:39:02;;;;;;;20.43;16.37;;;16.10;1.00;17.00;101200.00;;;;4943653;29;20508;-84
2021/09/07 04:41:30;;;;;;;16.70;14.90;;;16.10;1.00;17.00;101199.00;;;;4929011;29;20490;-82
2021/09/07 04:44:00;;;;;;;17.70;15.20;;;16.10;1.00;17.00;101213.00;;;;4904343;29;20451;-82
2021/09/07 04:46:30;;;;;;;22.03;16.33;;;16.10;1.00;17.00;101214.00;;;;4911897;29;20458;-82
2021/09/07 04:48:59;;;;;;;17.90;16.00;;;16.10;1.00;17.00;101206.00;;;;4906232;29;20463;-82
2021/09/07 04:51:27;;;;;;;21.03;18.40;;;16.10;1.00;17.00;101205.00;;;;4912028;29;20541;-82
2021/09/07 04:53:58;;;;;;;21.30;17.00;;;16.20;1.00;16.90;101205.00;;;;4938026;29;20494;-82
2021/09/07 04:56:26;;;;;;;19.70;17.07;;;16.20;1.00;16.90;101212.00;;;;4920984;29;20478;-81
2021/09/07 04:58:55;;;;;;;21.20;16.80;;;16.20;1.00;16.90;101219.00;;;;4919297;29;20466;-83
2021/09/07 05:01:23;;;;;;;19.60;16.93;;;16.20;1.00;16.90;101216.00;;;;4936101;29;20484;-84
2021/09/07 05:03:53;;;;;;;19.03;16.53;;;16.20;1.00;17.00;101224.00;;;;4933334;29;20498;-81
2021/09/07 05:06:22;;;;;;;17.70;15.80;;;16.30;1.00;17.00;101224.00;;;;4911890;29;20469;-81
2021/09/07 05:08:50;;;;;;;17.57;15.50;;;16.30;1.00;17.00;101220.00;;;;4896633;29;20461;-80
2021/09/07 05:11:19;;;;;;;18.43;15.30;;;16.30;1.00;17.00;101222.00;;;;4938102;29;20474;-81
2021/09/07 05:13:47;;;;;;;19.93;16.97;;;16.30;1.00;17.10;101221.00;;;;4914245;29;20494;-82
2021/09/07 05:16:15;;;;;;;20.43;17.90;;;16.30;1.00;17.10;101195.00;;;;4928334;29;20482;-81
2021/09/07 05:18:44;;;;;;;18.23;16.13;;;16.40;1.00;17.10;101229.00;;;;4934646;29;20470;-84
2021/09/07 05:21:15;;;;;;;21.13;16.90;;;16.40;1.00;17.20;101222.00;;;;4922044;29;20565;-82
2021/09/07 05:23:43;;;;;;;18.90;16.33;;;16.50;1.00;17.20;101233.00;;;;4923825;29;20490;-81
2021/09/07 05:26:12;;;;;;;19.97;16.73;;;16.50;1.00;17.30;101216.00;;;;4934170;29;20470;-81
2021/09/07 05:28:40;;;;;;;20.43;15.90;;;16.50;1.00;17.30;101240.00;;;;4938765;29;20456;-84
2021/09/07 05:31:17;;;;;;;18.33;15.37;;;16.60;1.00;17.40;101226.00;;;;4945945;29;20509;-84
2021/09/07 05:33:47;;;;;;;20.30;17.30;;;16.60;1.00;17.40;101247.00;;;;4917631;29;20483;-84
2021/09/07 05:36:17;;;;;;;17.70;15.80;;;16.70;1.00;17.50;101227.00;;;;4934293;29;20483;-82
2021/09/07 05:38:45;;;;;;;18.53;16.10;;;16.80;1.00;17.50;101247.00;;;;4901354;29;20475;-80
2021/09/07 05:41:14;;;;;;;17.57;15.67;;;16.80;1.00;17.60;101247.00;;;;4903367;29;20476;-81
2021/09/07 05:43:44;;;;;;;17.77;15.87;;;16.90;1.00;17.60;101249.00;;;;4920458;29;20442;-83
2021/09/07 05:46:13;;;;;;;19.93;16.90;;;16.90;1.00;17.70;101243.00;;;;4938650;29;20462;-82
2021/09/07 05:48:41;;;;;;;18.23;16.20;;;16.90;1.00;17.70;101232.00;;;;4938058;29;20486;-83
2021/09/07 05:51:13;;;;;;;19.33;17.17;;;17.00;1.00;17.70;101257.00;;;;4921727;29;20514;-83
2021/09/07 05:53:42;;;;;;;21.00;17.47;;;17.10;1.00;17.80;101257.00;;;;4912012;29;20464;-84
2021/09/07 05:56:11;;;;;;;18.63;16.10;;;17.10;1.00;17.90;101233.00;;;;4924695;29;20442;-83
2021/09/07 05:58:40;;;;;;;18.47;16.53;;;17.20;1.00;17.90;101253.00;;;;4934145;29;20482;-81
2021/09/07 06:01:13;;;;;;;18.97;16.97;;;17.30;1.00;18.10;101246.00;;;;4914952;29;20877;-82
2021/09/07 06:03:42;;;;;;;19.63;16.03;;;17.40;1.00;18.20;101253.00;;;;4912552;29;20451;-81
2021/09/07 06:06:10;;;;;;;20.37;15.13;;;17.50;1.00;18.30;101263.00;;;;4927847;29;20808;-80
2021/09/07 06:08:40;;;;;;;23.93;16.80;;;17.60;1.00;18.30;101254.00;;;;4927030;29;20450;-82
2021/09/07 06:11:09;;;;;;;23.63;16.50;;;17.70;1.00;18.40;101243.00;;;;4937594;29;20479;-83
2021/09/07 06:13:38;;;;;;;20.57;16.70;;;17.70;1.00;18.50;101251.00;;;;4949563;29;20465;-84
2021/09/07 06:16:07;;;;;;;20.67;17.80;;;17.80;1.00;18.50;101257.00;;;;4941833;29;20542;-85
2021/09/07 06:18:35;;;;;;;19.07;17.07;;;17.80;1.00;18.60;101228.00;;;;4921887;29;20486;-84
2021/09/07 06:21:04;;;;;;;21.50;17.37;;;17.90;1.00;18.70;101260.00;;;;4920853;29;20570;-86
2021/09/07 06:23:32;;;;;;;19.00;16.90;;;17.90;1.00;18.80;101206.00;;;;4917839;29;20843;-84
2021/09/07 06:26:01;;;;;;;21.80;17.93;;;18.00;1.00;18.80;101261.00;;;;4937285;29;20454;-84
2021/09/07 06:28:30;;;;;;;21.20;18.10;;;18.00;1.00;18.80;101273.00;;;;4923152;29;20447;-83
2021/09/07 06:30:59;;;;;;;18.87;16.83;;;18.10;1.00;18.90;101267.00;;;;4913388;29;20520;-83
2021/09/07 06:33:28;;;;;;;23.23;17.50;;;18.20;1.00;19.00;101273.00;;;;4936368;29;20454;-82
2021/09/07 06:35:56;;;;;;;20.17;16.87;;;18.20;1.00;19.00;101253.00;;;;4905405;29;20477;-82
2021/09/07 06:38:24;;;;;;;22.20;18.03;;;18.30;1.00;19.10;101267.00;;;;4906733;29;21105;-82
2021/09/07 06:40:53;;;;;;;21.10;18.23;;;18.40;1.00;19.20;101273.00;;;;4912438;29;20482;-82
2021/09/07 06:43:21;;;;;;;18.90;16.90;;;18.50;1.00;19.30;101206.00;;;;4906024;29;20453;-82
2021/09/07 06:45:51;;;;;;;19.57;16.57;;;18.60;1.00;19.30;101273.00;;;;4916082;29;20461;-82
2021/09/07 06:48:19;;;;;;;18.67;16.77;;;18.60;1.00;19.50;101271.00;;;;4907527;29;21003;-80
2021/09/07 06:50:47;;;;;;;20.63;16.93;;;18.70;1.00;19.60;101239.00;;;;4909050;29;20438;-81
2021/09/07 06:53:16;;;;;;;19.67;16.67;;;18.90;1.00;19.60;101275.00;;;;4910348;29;20466;-81
2021/09/07 06:55:44;;;;;;;21.40;17.87;;;18.90;1.00;19.80;101264.00;;;;4911272;29;20446;-82
2021/09/07 06:58:13;;;;;;;28.33;25.33;;;19.00;1.00;19.90;101272.00;;;;4925221;29;20565;-82
2021/09/07 07:00:41;;;;;;;18.17;16.27;;;19.20;1.00;20.00;101231.00;;;;4929595;29;20516;-81
2021/09/07 07:03:11;;;;;;;19.60;17.30;;;19.30;1.00;20.10;101245.00;;;;4922585;29;20497;-80
2021/09/07 07:05:39;;;;;;;20.50;17.20;;;19.40;1.00;20.20;101280.00;;;;4906207;29;20967;-81
2021/09/07 07:08:08;;;;;;;20.83;18.63;;;19.40;1.00;20.20;101268.00;;;;4915883;29;20462;-85
2021/09/07 07:10:36;;;;;;;21.63;18.90;;;19.40;1.00;20.20;101279.00;;;;4923985;29;20466;-82
2021/09/07 07:13:05;;;;;;;20.90;17.40;;;19.50;1.00;20.30;101268.00;;;;4925153;29;20552;-83
2021/09/07 07:15:34;;;;;;;22.43;16.37;;;19.60;1.00;20.40;101262.00;;;;4936519;29;20465;-83
2021/09/07 07:18:02;;;;;;;20.53;16.50;;;19.60;1.00;20.40;101264.00;;;;4889897;29;20941;-83
2021/09/07 07:20:32;;;;;;;20.67;18.17;;;19.70;1.00;20.60;101277.00;;;;4887090;29;20458;-80
2021/09/07 07:23:01;;;;;;;21.90;17.67;;;19.90;1.00;20.60;101272.00;;;;4905115;29;20446;-82
2021/09/07 07:25:31;;;;;;;20.73;16.50;;;19.90;1.00;20.80;101282.00;;;;4918203;29;20544;-82
2021/09/07 07:27:59;;;;;;;23.00;17.50;;;20.00;1.00;20.80;101284.00;;;;4947772;29;20900;-82
2021/09/07 07:30:31;;;;;;;18.40;16.10;;;20.10;1.00;20.90;101285.00;;;;4920625;29;20449;-80
2021/09/07 07:33:00;;;;;;;20.30;16.27;;;20.20;1.00;21.10;101288.00;;;;4902201;29;20447;-80
2021/09/07 07:35:28;;;;;;;22.43;17.00;;;20.30;1.00;21.10;101286.00;;;;4893617;29;20448;-81
2021/09/07 07:37:58;;;;;;;24.87;17.50;;;20.30;1.00;21.20;101292.00;;;;4909599;29;20825;-80
2021/09/07 07:40:26;;;;;;;20.50;16.23;;;20.40;1.00;21.20;101284.00;;;;4902115;29;20976;-81
2021/09/07 07:42:54;;;;;;;27.07;19.27;;;20.40;1.00;21.30;101293.00;;;;4910984;29;20489;-81
2021/09/07 07:45:23;;;;;;;19.00;16.63;;;20.50;1.00;21.30;101299.00;;;;4931580;29;20453;-81
2021/09/07 07:47:51;;;;;;;19.80;17.70;;;20.50;1.00;21.30;101298.00;;;;4942230;29;20465;-82
2021/09/07 07:50:20;;;;;;;20.27;16.67;;;20.50;1.00;21.30;101294.00;;;;4941847;29;21002;-82
2021/09/07 07:52:48;;;;;;;19.63;16.00;;;20.50;1.00;21.20;101302.00;;;;4925987;29;20469;-81
2021/09/07 07:55:18;;;;;;;18.83;16.70;;;20.50;1.00;21.30;101306.00;;;;4943701;29;20437;-81
2021/09/07 07:57:46;;;;;;;19.83;17.53;;;20.60;1.00;21.50;101305.00;;;;4933345;29;20493;-81
2021/09/07 08:00:15;;;;;;;24.07;19.87;;;20.60;1.00;21.50;101294.00;;;;4928259;29;20465;-81
2021/09/07 08:02:43;;;;;;;22.33;16.33;;;20.70;1.00;21.50;101307.00;;;;4929452;29;20571;-82
2021/09/07 08:05:18;;;;;;;21.40;16.43;;;20.80;1.00;21.70;101312.00;;;;4927783;29;20453;-82
2021/09/07 08:07:47;;;;;;;19.07;16.20;;;20.90;1.00;21.70;101300.00;;;;4960206;29;20508;-82
2021/09/07 08:10:17;;;;;;;18.70;16.10;;;21.00;1.00;21.80;101283.00;;;;4953227;29;20505;-80
2021/09/07 08:12:45;;;;;;;16.67;14.97;;;21.20;1.00;22.00;101299.00;;;;4922565;29;20451;-81
2021/09/07 08:15:14;;;;;;;20.70;16.60;;;21.30;1.00;22.20;101304.00;;;;4931400;29;20494;-80
2021/09/07 08:17:42;;;;;;;20.00;15.30;;;21.40;1.00;22.30;101290.00;;;;4942935;29;20454;-81
2021/09/07 08:20:12;;;;;;;20.53;15.77;;;21.50;1.00;22.40;101290.00;;;;4943123;29;20482;-82
2021/09/07 08:22:40;;;;;;;20.70;14.77;;;21.60;1.00;22.50;101312.00;;;;4926806;29;20486;-81
2021/09/07 08:25:10;;;;;;;17.40;15.60;;;21.70;1.00;22.50;101307.00;;;;4927635;29;20451;-80
2021/09/07 08:27:40;;;;;;;16.97;15.17;;;21.80;1.00;22.60;101300.00;;;;4925931;29;20486;-81
2021/09/07 08:30:10;;;;;;;19.27;15.13;;;21.80;1.00;22.60;101268.00;;;;4944890;29;20469;-80
2021/09/07 08:32:40;;;;;;;19.00;15.77;;;21.80;1.00;22.70;101311.00;;;;4956734;29;20500;-81
2021/09/07 08:35:10;;;;;;;17.20;13.97;;;21.90;1.00;22.70;101306.00;;;;4959980;29;20469;-82
2021/09/07 08:37:39;;;;;;;17.07;14.70;;;22.00;1.00;22.80;101311.00;;;;4943406;29;20457;-80
2021/09/07 08:40:10;;;;;;;17.80;15.07;;;22.10;1.00;22.80;101307.00;;;;4943893;29;20517;-80
2021/09/07 08:42:40;;;;;;;17.37;15.17;;;22.20;1.00;22.90;101297.00;;;;4926598;29;20558;-80
2021/09/07 08:45:14;;;;;;;26.40;19.90;;;22.20;1.00;22.90;101309.00;;;;4943481;29;20425;-82
2021/09/07 08:47:45;;;;;;;15.67;13.97;;;22.30;1.00;23.10;101312.00;;;;4930712;29;20489;-81
2021/09/07 08:50:15;;;;;;;17.73;14.40;;;22.50;1.00;23.20;101300.00;;;;4920763;29;20446;-81
2021/09/07 08:52:44;;;;;;;17.87;15.97;;;22.60;1.00;23.30;101311.00;;;;4930916;29;20482;-81
2021/09/07 08:55:12;;;;;;;22.63;15.43;;;22.60;1.00;23.40;101306.00;;;;4917113;29;20451;-81
2021/09/07 08:57:43;;;;;;;21.70;15.63;;;22.70;1.00;23.40;101314.00;;;;4923364;29;20458;-81
2021/09/07 09:00:13;;;;;;;16.33;14.23;;;22.80;1.00;23.40;101315.00;;;;4906248;29;20565;-81
2021/09/07 09:02:43;;;;;;;17.37;14.57;;;22.70;1.00;23.50;101311.00;;;;4904698;29;20489;-81
2021/09/07 09:05:13;;;;;;;16.47;14.77;;;22.80;1.00;23.40;101258.00;;;;4938009;29;20442;-82
2021/09/07 09:07:42;;;;;;;24.47;21.00;;;22.90;1.00;23.30;101299.00;;;;4926852;29;20450;-82
2021/09/07 09:10:20;;;;;;;16.73;14.93;;;22.80;1.00;23.50;101308.00;;;;4930030;29;20469;-81
2021/09/07 09:12:50;;;;;;;17.70;14.97;;;22.90;1.00;23.60;101303.00;;;;4940003;29;20538;-81
2021/09/07 09:15:21;;;;;;;15.90;14.00;;;23.10;1.00;23.70;101301.00;;;;4940346;29;20458;-80
2021/09/07 09:17:51;;;;;;;16.57;14.50;;;23.30;1.00;23.70;101276.00;;;;4940779;29;20522;-81
2021/09/07 09:20:21;;;;;;;25.10;17.27;;;23.20;1.00;23.90;101311.00;;;;4939139;29;20565;-81
2021/09/07 09:22:51;;;;;;;18.53;15.20;;;23.30;1.00;24.00;101312.00;;;;4933334;29;20470;-81
2021/09/07 09:25:32;;;;;;;15.20;13.70;;;23.50;1.00;23.90;101310.00;;;;4924533;29;20426;-81
2021/09/07 09:28:22;;;;;;;16.17;13.67;;;23.60;1.00;24.10;101316.00;;;;4924064;29;20438;-81
2021/09/07 09:30:56;;;;;;;16.17;14.47;;;23.70;1.00;24.20;101310.00;;;;4905744;29;20493;-81
2021/09/07 09:33:28;;;;;;;14.83;13.33;;;23.80;1.00;24.20;101316.00;;;;4905387;29;20446;-81
2021/09/07 09:36:02;;;;;;;16.00;14.50;;;23.80;1.00;24.30;101290.00;;;;4907229;29;20496;-81
2021/09/07 09:38:34;;;;;;;18.73;14.87;;;23.80;1.00;24.30;101317.00;;;;4920746;29;20994;-82
2021/09/07 09:41:05;;;;;;;15.87;13.30;;;23.90;1.00;24.30;101309.00;;;;4900032;29;20521;-82
2021/09/07 09:43:41;;;;;;;15.80;14.20;;;24.00;1.00;24.10;101316.00;;;;4921350;29;20450;-81
2021/09/07 09:46:25;;;;;;;18.80;14.00;;;23.80;1.00;24.20;101323.00;;;;4905054;29;20580;-83
2021/09/07 09:49:11;;;;;;;17.37;14.03;;;23.80;1.00;24.00;101237.00;;;;4905900;29;20438;-81
2021/09/07 09:51:42;;;;;;;15.50;13.90;;;23.70;1.00;24.20;101318.00;;;;4922743;29;20462;-81
2021/09/07 09:54:24;;;;;;;16.57;14.60;;;23.70;1.00;24.30;101318.00;;;;4920309;29;20848;-81
2021/09/07 09:56:53;;;;;;;15.50;13.47;;;23.80;1.00;24.40;101303.00;;;;4905375;29;20550;-82
2021/09/07 09:59:23;;;;;;;15.20;13.60;;;23.90;1.00;24.30;101306.00;;;;4922076;29;20541;-81
2021/09/07 10:01:51;;;;;;;16.70;13.83;;;24.00;1.00;24.40;101304.00;;;;4923959;29;20513;-80
2021/09/07 10:04:22;;;;;;;16.57;14.43;;;24.00;1.00;24.50;101297.00;;;;4923547;29;20442;-82
2021/09/07 10:06:54;;;;;;;15.30;13.77;;;24.10;1.00;24.50;101304.00;;;;4904046;29;20442;-84
2021/09/07 10:09:28;;;;;;;14.97;13.37;;;24.10;1.00;24.60;101312.00;;;;4921705;29;20535;-83
2021/09/07 10:12:07;;;;;;;18.53;14.07;;;24.30;1.00;24.60;101306.00;;;;4924676;29;20486;-82
2021/09/07 10:14:40;;;;;;;16.10;13.37;;;24.40;1.00;24.80;101263.00;;;;4938355;29;20485;-84
2021/09/07 10:17:32;;;;;;;16.70;13.30;;;24.60;1.00;25.00;101265.00;;;;4932239;29;20468;-84
2021/09/07 10:20:10;;;;;;;16.87;12.90;;;24.80;1.00;25.10;101310.00;;;;4907793;29;20502;-82
2021/09/07 10:25:57;;;;;;;17.73;12.63;;;24.80;1.00;25.10;101273.00;;;;4911628;29;20462;-82
2021/09/07 10:28:34;;;;;;;18.17;15.80;;;24.80;1.00;25.10;101302.00;;;;4920426;29;20469;-83
2021/09/07 10:31:15;;;;;;;17.10;15.30;;;24.80;1.00;25.20;101274.00;;;;4933590;29;20497;-82
2021/09/07 10:33:46;;;;;;;16.60;14.00;;;24.90;1.00;25.30;101274.00;;;;4913111;29;20522;-85
2021/09/07 10:36:18;;;;;;;16.70;14.83;;;24.90;1.00;25.30;101277.00;;;;4928833;29;20443;-82
2021/09/07 10:38:49;;;;;;;16.77;14.57;;;25.00;1.00;25.10;101250.00;;;;4911503;29;20443;-83
2021/09/07 10:41:47;;;;;;;16.47;14.43;;;25.00;1.00;25.40;101266.00;;;;4942380;29;20528;-82
2021/09/07 10:44:34;;;;;;;17.43;14.20;;;25.20;1.00;25.60;101280.00;;;;4916075;29;20442;-82
2021/09/07 10:47:08;;;;;;;13.70;12.40;;;25.40;1.00;25.70;101285.00;;;;4935390;29;20476;-83
2021/09/07 10:49:48;;;;;;;14.13;12.53;;;25.50;1.00;25.80;101198.00;;;;4913792;29;20536;-84
2021/09/07 10:52:20;;;;;;;15.90;14.20;;;25.60;1.00;25.90;101276.00;;;;4915453;29;20482;-83
2021/09/07 10:55:14;;;;;;;15.67;13.27;;;25.70;1.00;26.00;101269.00;;;;4924822;29;20438;-83
2021/09/07 10:57:56;;;;;;;17.60;15.80;;;25.70;1.00;26.00;101270.00;;;;4927928;29;20458;-82